»·PEaware :: SKY633 KSZT-65S

SKY633 :: KSZT-65S

FLIGHT INFORMATION

Flight Status: Arrived
Operator:
Sky High Charters
More flights by this operator :: More flights under this callsign
Pilot: Dean L. (8400)
Aircraft: Unknown
(DA62)
More flights by this aircraft type
Origin: KSZT Sandpoint
United States
Destination: 65S Boundary Co
United States
More flights between these airports :: More routes between these airports
Route: COE KARPS
File this flight plan on PilotEdge
Remarks:
Altitude:
(Current/Filed)
10,000ft
Speed:
(Current/Filed)
180kts
Departed: 05-Jan-19 06:02 PM
Arrived: 05-Jan-19 06:39 PM
Distance/Time
Traveled:
28nm/0:37
Distance/Time
To Go:
Arrived

Flight Plot

Page will automatically refresh every two minutes.

Flight plan parsing failed; only flown route is shown


Map Options




Map Legend


Flown Route
Filed Route
Departure Airport
Arrival Airport
Navaid (VOR, NDB)
Fix

Horizontal Profiles

Position Reports

Time Latitude Longitude Heading Altitude Ground
Speed
05-Jan-19 17:50 48.297159 -116.560576 206 2134ft 0kts
05-Jan-19 17:51 48.297159 -116.560576 206 2134ft 0kts
05-Jan-19 17:52 48.297159 -116.560576 206 2134ft 0kts
05-Jan-19 17:53 48.297159 -116.560576 206 2134ft 0kts
05-Jan-19 17:54 48.297159 -116.560576 206 2134ft 0kts
05-Jan-19 17:55 48.297159 -116.560576 206 2134ft 0kts
05-Jan-19 17:56 48.297159 -116.560576 206 2134ft 0kts
05-Jan-19 17:57 48.297159 -116.560576 206 2134ft 0kts
05-Jan-19 17:58 48.297159 -116.560576 206 2134ft 0kts
05-Jan-19 17:59 48.293240 -116.564949 238 2134ft 8kts
05-Jan-19 18:00 48.293864 -116.565600 28 2134ft 24kts
05-Jan-19 18:01 48.310895 -116.543600 59 2696ft 96kts
05-Jan-19 18:02 48.306561 -116.525417 214 3623ft 87kts
05-Jan-19 18:03 48.286542 -116.547941 214 4459ft 91kts
05-Jan-19 18:04 48.267487 -116.569422 214 5772ft 82kts
05-Jan-19 18:05 48.248654 -116.587543 218 7177ft 78kts
05-Jan-19 18:06 48.229866 -116.602809 218 8598ft 75kts
05-Jan-19 18:07 48.210076 -116.615186 218 9938ft 83kts
05-Jan-19 18:08 48.180084 -116.635587 218 10417ft 142kts
05-Jan-19 18:09 48.140827 -116.665414 218 10479ft 168kts
05-Jan-19 18:10 48.101695 -116.709925 218 10204ft 184kts
05-Jan-19 18:11 48.052557 -116.728874 195 10021ft 183kts
05-Jan-19 18:12 48.005348 -116.735074 152 10019ft 185kts
05-Jan-19 18:13 47.957034 -116.728135 190 10010ft 179kts
05-Jan-19 18:14 47.908005 -116.740911 190 10008ft 178kts
05-Jan-19 18:15 47.860726 -116.761272 207 10006ft 179kts
05-Jan-19 18:16 47.817643 -116.798046 199 10005ft 178kts
05-Jan-19 18:17 47.770197 -116.806580 154 10006ft 182kts
05-Jan-19 18:18 47.771628 -116.738425 32 10006ft 217kts
05-Jan-19 18:19 47.830418 -116.711791 18 9662ft 226kts
05-Jan-19 18:20 47.872590 -116.692591 18 9317ft 225kts
05-Jan-19 18:21 47.931616 -116.665488 19 8999ft 214kts
05-Jan-19 18:22 47.987689 -116.639754 19 9007ft 208kts
05-Jan-19 18:23 48.042754 -116.614353 19 9012ft 207kts
05-Jan-19 18:24 48.097844 -116.588981 19 9016ft 207kts
05-Jan-19 18:25 48.152787 -116.563610 18 9020ft 206kts
05-Jan-19 18:26 48.204226 -116.530777 60 9031ft 198kts
05-Jan-19 18:27 48.244713 -116.490906 334 9035ft 206kts
05-Jan-19 18:28 48.297226 -116.522818 359 9036ft 207kts
05-Jan-19 18:29 48.357180 -116.515573 15 8200ft 223kts
05-Jan-19 18:30 48.417335 -116.491340 16 7198ft 220kts
05-Jan-19 18:31 48.475451 -116.467311 20 6201ft 213kts
05-Jan-19 18:32 48.528305 -116.440298 20 5864ft 192kts
05-Jan-19 18:33 48.577463 -116.410351 25 5248ft 185kts
05-Jan-19 18:34 48.623938 -116.378499 25 4793ft 183kts
05-Jan-19 18:35 48.669374 -116.345596 26 4017ft 173kts
05-Jan-19 18:36 48.706383 -116.316425 30 2765ft 123kts
05-Jan-19 18:37 48.728217 -116.291997 34 2337ft 69kts
05-Jan-19 18:38 48.730800 -116.291382 289 2336ft 0kts
05-Jan-19 18:39 48.730800 -116.291382 289 2336ft 0kts
05-Jan-19 18:40 48.730800 -116.291382 289 2336ft 0kts

Navigation Log

Ident Type
Flight plan parsing failed, navigation log unavailable